KMEM/MEM METAR and TAF weather

Enter ICAO airport designator
Station Type Date Time Source
KMEM METAR 2019/10/15 03:54 UTC NOAA

KMEM 150354Z 17006KT 10SM FEW120 BKN230 17/12 A3005 RMK AO2 SLP174 T01720117


Station Type Date Time Source
KMEM Decoded METAR 2019/10/15 03:54 UTC NOAA

MEMPHIS INTERNATIONAL AIRPORT , TN, United States (KMEM) 35-02N 089-59W 86M
Oct 14, 2019 - 11:54 PM EDT / 2019.10.15 0354 UTC
Wind: from the S (170 degrees) at 7 MPH (6 KT):0
Visibility: 10 mile(s):0
Sky conditions: mostly cloudy
Temperature: 63.0 F (17.2 C)
Dew Point: 53.1 F (11.7 C)
Relative Humidity: 70%
Pressure (altimeter): 30.05 in. Hg (1017 hPa)
ob: KMEM 150354Z 17006KT 10SM FEW120 BKN230 17/12 A3005 RMK AO2 SLP174 T01720117
cycle: 4

Station Type Date Time Source
KMEM TAF 2019/10/15 03:03 UTC NOAA

TAF
AMD KMEM 150300Z 1503/1606 14004KT P6SM SCT150 BKN250
FM151200 16004KT P6SM SCT025 BKN040
TEMPO 1512/1516 BKN028
FM151600 18006KT P6SM SCT025 BKN035
FM152000 19008KT P6SM VCSH SCT025 OVC040
FM160400 VRB03KT 4SM -SHRA BR SCT007 BKN015

Example: see airport list